createdAt,value
2016-12-26T00:00:31.628Z,0
2016-12-26T00:01:31.589Z,0
2016-12-26T00:02:31.579Z,0
2016-12-26T00:03:31.576Z,0
2016-12-26T00:04:31.569Z,0
2016-12-26T00:05:31.559Z,0
2016-12-26T00:06:31.554Z,0
2016-12-26T00:07:31.544Z,0
2016-12-26T00:08:31.838Z,0
2016-12-26T00:09:31.528Z,0
2016-12-26T00:10:31.520Z,0
2016-12-26T00:11:31.514Z,0
2016-12-26T00:12:31.508Z,0
2016-12-26T00:13:31.499Z,0
2016-12-26T00:14:31.490Z,0
2016-12-26T00:15:31.484Z,0
2016-12-26T00:16:31.470Z,0
2016-12-26T00:17:31.466Z,0
2016-12-26T00:18:31.459Z,0
2016-12-26T00:19:31.456Z,0
2016-12-26T00:20:31.441Z,0
2016-12-26T00:21:31.434Z,0
2016-12-26T00:22:31.447Z,0
2016-12-26T00:23:31.720Z,0
2016-12-26T00:24:31.413Z,0
2016-12-26T00:25:31.400Z,0
2016-12-26T00:26:31.696Z,0
2016-12-26T00:27:31.386Z,0
2016-12-26T00:28:31.376Z,0
2016-12-26T00:29:31.370Z,0
2016-12-26T00:30:31.671Z,0
2016-12-26T00:31:31.363Z,0
2016-12-26T00:32:31.351Z,0
2016-12-26T00:33:31.348Z,0
2016-12-26T00:34:31.331Z,0
2016-12-26T00:35:31.322Z,0
2016-12-26T00:36:31.344Z,0
2016-12-26T00:37:31.311Z,0
2016-12-26T00:38:31.609Z,0
2016-12-26T00:39:31.298Z,0
2016-12-26T00:40:31.285Z,0
2016-12-26T00:41:31.278Z,0
2016-12-26T00:42:31.270Z,0
2016-12-26T00:43:31.263Z,0
2016-12-26T00:44:31.259Z,0
2016-12-26T00:45:31.247Z,0
2016-12-26T00:46:31.242Z,0
2016-12-26T00:47:31.229Z,0
2016-12-26T00:48:31.253Z,0
2016-12-26T00:49:31.222Z,0
2016-12-26T00:50:31.205Z,0
2016-12-26T00:51:31.200Z,0
2016-12-26T00:52:31.494Z,0
2016-12-26T00:53:31.219Z,0
2016-12-26T00:54:31.174Z,0
2016-12-26T00:55:31.170Z,0
2016-12-26T00:56:31.166Z,0
2016-12-26T00:57:31.148Z,0
2016-12-26T00:58:31.145Z,0
2016-12-26T00:59:31.144Z,0
2016-12-26T01:00:31.127Z,0
2016-12-26T01:01:31.116Z,0
2016-12-26T01:02:31.108Z,0
2016-12-26T01:03:31.110Z,0
2016-12-26T01:04:31.092Z,0
2016-12-26T01:05:31.088Z,0
2016-12-26T01:06:31.082Z,0
2016-12-26T01:07:31.075Z,0
2016-12-26T01:08:31.066Z,0
2016-12-26T01:09:31.058Z,0
2016-12-26T01:10:31.051Z,0
2016-12-26T01:11:31.041Z,0
2016-12-26T01:12:31.035Z,0
2016-12-26T01:13:31.023Z,0
2016-12-26T01:14:31.015Z,0
2016-12-26T01:15:31.014Z,0
2016-12-26T01:16:31.306Z,0
2016-12-26T01:17:30.994Z,0
2016-12-26T01:18:30.988Z,0
2016-12-26T01:19:31.286Z,0
2016-12-26T01:20:30.975Z,0
2016-12-26T01:21:30.963Z,0
2016-12-26T01:22:30.954Z,0
2016-12-26T01:23:30.952Z,0
2016-12-26T01:24:30.944Z,0
2016-12-26T01:25:30.934Z,0
2016-12-26T01:26:30.927Z,0
2016-12-26T01:27:30.919Z,0
2016-12-26T01:28:31.210Z,0
2016-12-26T01:29:30.904Z,0
2016-12-26T01:30:30.895Z,0
2016-12-26T01:31:30.883Z,0
2016-12-26T01:32:30.880Z,0
2016-12-26T01:33:30.872Z,0
2016-12-26T01:34:30.865Z,0
2016-12-26T01:35:31.161Z,0
2016-12-26T01:36:30.850Z,0
2016-12-26T01:37:30.837Z,0
2016-12-26T01:38:30.834Z,0
2016-12-26T01:39:30.823Z,0
2016-12-26T01:40:30.825Z,0
2016-12-26T01:41:30.808Z,0
2016-12-26T01:42:30.803Z,0
2016-12-26T01:43:30.804Z,0
2016-12-26T01:44:30.789Z,0
2016-12-26T01:45:30.781Z,0
2016-12-26T01:46:30.768Z,0
2016-12-26T01:47:30.767Z,0
2016-12-26T01:48:30.756Z,0
2016-12-26T01:49:30.750Z,0
2016-12-26T01:50:30.740Z,0
2016-12-26T01:51:30.730Z,0
2016-12-26T01:52:31.028Z,0
2016-12-26T01:53:30.720Z,0
2016-12-26T01:54:30.711Z,0
2016-12-26T01:55:30.702Z,0
2016-12-26T01:56:30.693Z,0
2016-12-26T01:57:30.687Z,0
2016-12-26T01:58:30.680Z,0
2016-12-26T01:59:30.673Z,0
2016-12-26T02:00:30.664Z,0
2016-12-26T02:01:30.655Z,0
2016-12-26T02:02:30.645Z,0
2016-12-26T02:03:30.639Z,0
2016-12-26T02:04:30.632Z,0
2016-12-26T02:05:30.628Z,0
2016-12-26T02:06:30.617Z,0
2016-12-26T02:07:30.615Z,0
2016-12-26T02:08:30.601Z,0
2016-12-26T02:09:30.593Z,0
2016-12-26T02:10:30.585Z,0
2016-12-26T02:11:30.581Z,0
2016-12-26T02:12:30.572Z,0
2016-12-26T02:13:30.586Z,0
2016-12-26T02:14:30.557Z,0
2016-12-26T02:15:30.544Z,0
2016-12-26T02:16:30.538Z,0
2016-12-26T02:17:30.532Z,0
2016-12-26T02:18:30.523Z,0
2016-12-26T02:19:30.514Z,0
2016-12-26T02:20:30.509Z,0
2016-12-26T02:21:30.498Z,0
2016-12-26T02:22:30.494Z,0
2016-12-26T02:23:30.484Z,0
2016-12-26T02:24:30.476Z,0
2016-12-26T02:25:30.472Z,0
2016-12-26T02:26:30.463Z,0
2016-12-26T02:27:30.454Z,0
2016-12-26T02:28:30.451Z,0
2016-12-26T02:29:30.439Z,0
2016-12-26T02:30:30.429Z,0
2016-12-26T02:31:30.435Z,0
2016-12-26T02:32:30.418Z,0
2016-12-26T02:33:30.414Z,0
2016-12-26T02:34:30.399Z,0
2016-12-26T02:35:30.392Z,0
2016-12-26T02:36:30.387Z,0
2016-12-26T02:37:30.387Z,0
2016-12-26T02:38:30.394Z,0
2016-12-26T02:39:30.368Z,0
2016-12-26T02:40:30.352Z,0
2016-12-26T02:41:30.352Z,0
2016-12-26T02:42:30.343Z,0
2016-12-26T02:43:30.330Z,0
2016-12-26T02:44:30.332Z,0
2016-12-26T02:45:30.315Z,0
2016-12-26T02:46:30.311Z,0
2016-12-26T02:47:30.316Z,0
2016-12-26T02:48:30.293Z,0
2016-12-26T02:49:30.285Z,0
2016-12-26T02:50:30.276Z,0
2016-12-26T02:51:30.275Z,0
2016-12-26T02:52:30.269Z,0
2016-12-26T02:53:30.256Z,0
2016-12-26T02:54:30.247Z,0
2016-12-26T02:55:30.249Z,0
2016-12-26T02:56:30.235Z,0
2016-12-26T02:57:30.226Z,0
2016-12-26T02:58:30.216Z,0
2016-12-26T02:59:30.210Z,4
2016-12-26T03:00:30.204Z,4
2016-12-26T03:01:30.197Z,4
2016-12-26T03:02:30.190Z,4
2016-12-26T03:03:30.182Z,4
2016-12-26T03:04:30.173Z,4
2016-12-26T03:05:30.167Z,0
2016-12-26T03:06:30.158Z,0
2016-12-26T03:07:30.154Z,0
2016-12-26T03:08:30.146Z,0
2016-12-26T03:09:30.439Z,0
2016-12-26T03:10:30.131Z,0
2016-12-26T03:11:30.125Z,0
2016-12-26T03:12:30.113Z,0
2016-12-26T03:13:30.108Z,0
2016-12-26T03:14:30.100Z,0
2016-12-26T03:15:30.098Z,0
2016-12-26T03:16:30.400Z,0
2016-12-26T03:17:30.080Z,0
2016-12-26T03:18:30.079Z,0
2016-12-26T03:19:30.061Z,0
2016-12-26T03:20:30.058Z,0
2016-12-26T03:21:30.049Z,0
2016-12-26T03:22:30.040Z,0
2016-12-26T03:23:30.037Z,0
2016-12-26T03:24:30.023Z,0
2016-12-26T03:25:30.015Z,0
2016-12-26T03:26:30.012Z,0
2016-12-26T03:27:30.001Z,0
2016-12-26T03:28:29.999Z,0
2016-12-26T03:29:29.988Z,0
2016-12-26T03:30:29.980Z,0
2016-12-26T03:31:29.972Z,0
2016-12-26T03:32:29.964Z,0
2016-12-26T03:33:29.960Z,0
2016-12-26T03:34:29.948Z,0
2016-12-26T03:35:29.940Z,0
2016-12-26T03:36:29.933Z,0
2016-12-26T03:37:29.958Z,0
2016-12-26T03:38:29.924Z,0
2016-12-26T03:39:29.911Z,0
2016-12-26T03:40:29.914Z,0
2016-12-26T03:41:29.898Z,0
2016-12-26T03:42:29.892Z,0
2016-12-26T03:43:29.885Z,0
2016-12-26T03:44:29.890Z,0
2016-12-26T03:45:29.869Z,0
2016-12-26T03:46:29.860Z,0
2016-12-26T03:47:29.890Z,0
2016-12-26T03:48:29.855Z,0
2016-12-26T03:49:29.840Z,0
2016-12-26T03:50:29.832Z,0
2016-12-26T03:51:29.824Z,0
2016-12-26T03:52:29.815Z,0
2016-12-26T03:53:29.821Z,0
2016-12-26T03:54:29.801Z,0
2016-12-26T03:55:29.801Z,0
2016-12-26T03:56:29.785Z,0
2016-12-26T03:57:29.780Z,0
2016-12-26T03:58:29.781Z,0
2016-12-26T03:59:29.764Z,0
2016-12-26T04:00:29.759Z,0
2016-12-26T04:01:29.753Z,0
2016-12-26T04:02:29.738Z,0
2016-12-26T04:03:29.735Z,0
2016-12-26T04:04:29.729Z,0
2016-12-26T04:05:29.718Z,0
2016-12-26T04:06:29.715Z,0
2016-12-26T04:07:29.704Z,0
2016-12-26T04:08:29.695Z,0
2016-12-26T04:09:29.688Z,0
2016-12-26T04:10:29.683Z,0
2016-12-26T04:11:29.674Z,0
2016-12-26T04:12:29.673Z,0
2016-12-26T04:13:29.686Z,0
2016-12-26T04:14:29.651Z,0
2016-12-26T04:15:29.646Z,0
2016-12-26T04:16:29.643Z,0
2016-12-26T04:17:29.630Z,0
2016-12-26T04:18:29.631Z,0
2016-12-26T04:19:29.619Z,0
2016-12-26T04:20:29.603Z,0
2016-12-26T04:21:29.604Z,0
2016-12-26T04:22:29.586Z,0
2016-12-26T04:23:29.582Z,0
2016-12-26T04:24:29.878Z,0
2016-12-26T04:25:29.566Z,0
2016-12-26T04:26:29.561Z,0
2016-12-26T04:27:29.553Z,0
2016-12-26T04:28:29.546Z,0
2016-12-26T04:29:29.851Z,0
2016-12-26T04:30:29.527Z,0
2016-12-26T04:31:29.522Z,0
2016-12-26T04:32:29.518Z,0
2016-12-26T04:33:29.511Z,0
2016-12-26T04:34:29.500Z,0
2016-12-26T04:35:29.493Z,0
2016-12-26T04:36:29.492Z,0
2016-12-26T04:37:29.475Z,0
2016-12-26T04:38:29.470Z,0
2016-12-26T04:39:29.460Z,0
2016-12-26T04:40:29.456Z,0
2016-12-26T04:41:29.447Z,0
2016-12-26T04:42:29.447Z,0
2016-12-26T04:43:29.430Z,0
2016-12-26T04:44:29.421Z,0
2016-12-26T04:45:29.443Z,0
2016-12-26T04:46:29.411Z,0
2016-12-26T04:47:29.404Z,0
2016-12-26T04:48:29.392Z,0
2016-12-26T04:49:29.382Z,0
2016-12-26T04:50:29.380Z,0
2016-12-26T04:51:29.369Z,0
2016-12-26T04:52:29.370Z,0
2016-12-26T04:53:29.354Z,0
2016-12-26T04:54:29.352Z,0
2016-12-26T04:55:29.377Z,0
2016-12-26T04:56:29.330Z,0
2016-12-26T04:57:29.326Z,0
2016-12-26T04:58:29.318Z,0
2016-12-26T04:59:29.308Z,0
2016-12-26T05:00:29.303Z,0
2016-12-26T05:01:29.300Z,0
2016-12-26T05:02:29.287Z,0
2016-12-26T05:03:29.279Z,0
2016-12-26T05:04:29.280Z,0
2016-12-26T05:05:29.262Z,0
2016-12-26T05:06:29.259Z,0
2016-12-26T05:07:29.252Z,0
2016-12-26T05:08:29.239Z,0
2016-12-26T05:09:29.234Z,0
2016-12-26T05:10:29.226Z,0
2016-12-26T05:11:29.223Z,0
2016-12-26T05:12:29.211Z,0
2016-12-26T05:13:29.205Z,0
2016-12-26T05:14:29.195Z,0
2016-12-26T05:15:29.191Z,0
2016-12-26T05:16:29.181Z,0
2016-12-26T05:17:29.171Z,0
2016-12-26T05:18:29.170Z,0
2016-12-26T05:19:29.157Z,0
2016-12-26T05:20:29.149Z,0
2016-12-26T05:21:29.147Z,0
2016-12-26T05:22:29.135Z,0
2016-12-26T05:23:29.128Z,0
2016-12-26T05:24:29.117Z,0
2016-12-26T05:25:29.110Z,0
2016-12-26T05:26:29.410Z,0
2016-12-26T05:27:29.099Z,0
2016-12-26T05:28:29.091Z,0
2016-12-26T05:29:29.083Z,0
2016-12-26T05:30:29.073Z,0
2016-12-26T05:31:29.065Z,0
2016-12-26T05:32:29.055Z,0
2016-12-26T05:33:29.051Z,0
2016-12-26T05:34:29.042Z,0
2016-12-26T05:35:29.038Z,0
2016-12-26T05:36:29.032Z,0
2016-12-26T05:37:29.021Z,0
2016-12-26T05:38:29.011Z,0
2016-12-26T05:39:29.002Z,0
2016-12-26T05:40:29.000Z,0
2016-12-26T05:41:28.993Z,0
2016-12-26T05:42:28.981Z,0
2016-12-26T05:43:28.973Z,0
2016-12-26T05:44:28.965Z,0
2016-12-26T05:45:28.959Z,0
2016-12-26T05:46:28.953Z,0
2016-12-26T05:47:28.943Z,0
2016-12-26T05:48:28.932Z,0
2016-12-26T05:49:28.929Z,0
2016-12-26T05:50:28.914Z,0
2016-12-26T05:51:28.914Z,0
2016-12-26T05:52:28.903Z,0
2016-12-26T05:53:28.893Z,0
2016-12-26T05:54:28.888Z,0
2016-12-26T05:55:28.884Z,0
2016-12-26T05:56:28.900Z,0
2016-12-26T05:57:28.864Z,0
2016-12-26T05:58:28.861Z,0
2016-12-26T05:59:28.849Z,0
2016-12-26T06:00:28.841Z,0
2016-12-26T06:01:28.832Z,0
2016-12-26T06:02:28.823Z,0
2016-12-26T06:03:28.817Z,0
2016-12-26T06:04:28.808Z,0
2016-12-26T06:05:28.800Z,0
2016-12-26T06:06:28.793Z,0
2016-12-26T06:07:28.783Z,0
2016-12-26T06:08:28.775Z,0
2016-12-26T06:09:28.771Z,0
2016-12-26T06:10:28.766Z,0
2016-12-26T06:11:28.755Z,0
2016-12-26T06:12:28.746Z,0
2016-12-26T06:13:28.737Z,0
2016-12-26T06:14:28.730Z,0
2016-12-26T06:15:28.722Z,0
2016-12-26T06:16:28.713Z,0
2016-12-26T06:17:28.704Z,0
2016-12-26T06:18:28.703Z,0
2016-12-26T06:19:28.688Z,0
2016-12-26T06:20:28.710Z,0
2016-12-26T06:21:28.677Z,0
2016-12-26T06:22:28.675Z,0
2016-12-26T06:23:28.659Z,0
2016-12-26T06:24:28.651Z,0
2016-12-26T06:25:28.644Z,0
2016-12-26T06:26:28.637Z,0
2016-12-26T06:27:28.631Z,0
2016-12-26T06:28:28.619Z,0
2016-12-26T06:29:28.618Z,0
2016-12-26T06:30:28.603Z,0
2016-12-26T06:31:28.602Z,0
2016-12-26T06:32:28.588Z,0
2016-12-26T06:33:28.585Z,0
2016-12-26T06:34:28.877Z,0
2016-12-26T06:35:28.565Z,0
2016-12-26T06:36:28.556Z,0
2016-12-26T06:37:28.548Z,0
2016-12-26T06:38:28.573Z,0
2016-12-26T06:39:28.536Z,4
2016-12-26T06:40:28.527Z,4
2016-12-26T06:41:28.551Z,4
2016-12-26T06:42:28.506Z,4
2016-12-26T06:43:28.507Z,8
2016-12-26T06:44:28.496Z,4
2016-12-26T06:45:28.492Z,4
2016-12-26T06:46:28.479Z,8
2016-12-26T06:47:28.471Z,8
2016-12-26T06:48:28.461Z,8
2016-12-26T06:49:28.454Z,8
2016-12-26T06:50:28.443Z,4
2016-12-26T06:51:28.440Z,8
2016-12-26T06:52:28.431Z,12
2016-12-26T06:53:28.423Z,12
2016-12-26T06:54:28.421Z,16
2016-12-26T06:55:28.403Z,20
2016-12-26T06:56:28.394Z,28
2016-12-26T06:57:28.395Z,28
2016-12-26T06:58:28.381Z,32
2016-12-26T06:59:28.374Z,44
2016-12-26T07:00:28.368Z,44
2016-12-26T07:01:28.358Z,36
2016-12-26T07:02:28.346Z,40
2016-12-26T07:03:28.338Z,44
2016-12-26T07:04:28.330Z,52
2016-12-26T07:05:28.331Z,56
2016-12-26T07:06:28.312Z,68
2016-12-26T07:07:28.310Z,84
2016-12-26T07:08:28.301Z,100
2016-12-26T07:09:28.295Z,100
2016-12-26T07:10:28.888Z,128
2016-12-26T07:11:28.274Z,136
2016-12-26T07:12:28.266Z,108
2016-12-26T07:13:28.257Z,100
2016-12-26T07:14:28.253Z,112
2016-12-26T07:15:28.243Z,152
2016-12-26T07:16:28.232Z,176
2016-12-26T07:17:28.225Z,164
2016-12-26T07:18:28.214Z,212
2016-12-26T07:19:28.209Z,200
2016-12-26T07:20:28.199Z,196
2016-12-26T07:21:28.191Z,164
2016-12-26T07:22:28.183Z,156
2016-12-26T07:23:28.182Z,216
2016-12-26T07:24:28.169Z,320
2016-12-26T07:25:28.168Z,296
2016-12-26T07:26:28.148Z,344
2016-12-26T07:27:28.141Z,420
2016-12-26T07:28:28.133Z,408
2016-12-26T07:29:28.131Z,424
2016-12-26T07:30:28.119Z,496
2016-12-26T07:31:28.114Z,492
2016-12-26T07:32:28.100Z,572
2016-12-26T07:33:28.093Z,520
2016-12-26T07:34:28.084Z,516
2016-12-26T07:35:28.075Z,484
2016-12-26T07:36:28.064Z,508
2016-12-26T07:37:28.058Z,564
2016-12-26T07:38:28.055Z,488
2016-12-26T07:39:28.082Z,576
2016-12-26T07:40:28.037Z,744
2016-12-26T07:41:28.028Z,780
2016-12-26T07:42:28.021Z,776
2016-12-26T07:43:28.010Z,812
2016-12-26T07:44:28.000Z,740
2016-12-26T07:45:27.993Z,836
2016-12-26T07:46:27.983Z,808
2016-12-26T07:47:27.973Z,836
2016-12-26T07:48:27.970Z,736
2016-12-26T07:49:27.986Z,820
2016-12-26T07:50:27.949Z,660
2016-12-26T07:51:27.942Z,816
2016-12-26T07:52:27.935Z,932
2016-12-26T07:53:27.927Z,996
2016-12-26T07:54:27.917Z,1148
2016-12-26T07:55:27.934Z,1264
2016-12-26T07:56:27.904Z,1296
2016-12-26T07:57:27.893Z,1248
2016-12-26T07:58:27.887Z,1160
2016-12-26T07:59:27.876Z,1136
2016-12-26T08:00:27.872Z,1260
2016-12-26T08:01:27.860Z,1352
2016-12-26T08:02:27.851Z,1344
2016-12-26T08:03:27.846Z,1544
2016-12-26T08:04:27.836Z,1788
2016-12-26T08:05:27.826Z,1448
2016-12-26T08:06:27.820Z,1500
2016-12-26T08:07:27.814Z,1304
2016-12-26T08:08:27.802Z,1100
2016-12-26T08:09:27.797Z,1112
2016-12-26T08:10:27.789Z,1416
2016-12-26T08:11:27.782Z,1164
2016-12-26T08:12:27.770Z,1136
2016-12-26T08:13:28.069Z,1324
2016-12-26T08:14:27.759Z,1300
2016-12-26T08:15:27.749Z,1024
2016-12-26T08:16:27.745Z,1180
2016-12-26T08:17:27.731Z,1344
2016-12-26T08:18:27.730Z,1368
2016-12-26T08:19:27.715Z,1148
2016-12-26T08:20:27.712Z,1204
2016-12-26T08:21:27.705Z,1480
2016-12-26T08:22:27.693Z,1540
2016-12-26T08:23:27.717Z,1844
2016-12-26T08:24:27.688Z,1672
2016-12-26T08:25:27.681Z,1960
2016-12-26T08:26:27.664Z,1928
2016-12-26T08:27:27.655Z,2048
2016-12-26T08:28:27.652Z,1992
2016-12-26T08:29:27.644Z,2764
2016-12-26T08:30:27.633Z,2916
2016-12-26T08:31:27.629Z,2804
2016-12-26T08:32:27.618Z,2728
2016-12-26T08:33:27.613Z,2956
2016-12-26T08:34:27.601Z,3184
2016-12-26T08:35:27.598Z,3400
2016-12-26T08:36:27.592Z,3572
2016-12-26T08:37:27.581Z,3088
2016-12-26T08:38:27.574Z,2900
2016-12-26T08:39:27.566Z,2924
2016-12-26T08:40:27.561Z,3432
2016-12-26T08:41:27.549Z,4076
2016-12-26T08:42:27.847Z,4284
2016-12-26T08:43:27.537Z,3936
2016-12-26T08:44:27.530Z,3796
2016-12-26T08:45:27.522Z,3644
2016-12-26T08:46:27.520Z,3524
2016-12-26T08:47:27.504Z,3424
2016-12-26T08:48:27.525Z,3224
2016-12-26T08:49:27.491Z,3076
2016-12-26T08:50:27.486Z,3128
2016-12-26T08:51:27.479Z,3224
2016-12-26T08:52:27.467Z,3092
2016-12-26T08:53:27.463Z,3068
2016-12-26T08:54:27.480Z,2900
2016-12-26T08:55:27.455Z,2496
2016-12-26T08:56:27.439Z,2272
2016-12-26T08:57:27.435Z,2732
2016-12-26T08:58:27.471Z,2748
2016-12-26T08:59:27.422Z,3416
2016-12-26T09:00:27.412Z,3144
2016-12-26T09:01:27.408Z,3000
2016-12-26T09:02:27.401Z,3456
2016-12-26T09:03:27.413Z,3196
2016-12-26T09:04:27.390Z,3836
2016-12-26T09:05:27.386Z,4196
2016-12-26T09:06:27.373Z,3888
2016-12-26T09:07:27.361Z,3648
2016-12-26T09:08:27.353Z,3856
2016-12-26T09:09:27.349Z,3800
2016-12-26T09:10:27.340Z,4140
2016-12-26T09:11:27.343Z,4440
2016-12-26T09:12:27.329Z,4592
2016-12-26T09:13:27.319Z,4676
2016-12-26T09:14:27.317Z,4964
2016-12-26T09:15:27.308Z,5104
2016-12-26T09:16:27.303Z,5024
2016-12-26T09:17:27.291Z,4492
2016-12-26T09:18:27.589Z,3632
2016-12-26T09:19:27.282Z,3368
2016-12-26T09:20:27.272Z,3988
2016-12-26T09:21:27.268Z,4852
2016-12-26T09:22:27.258Z,5748
2016-12-26T09:23:27.280Z,6412
2016-12-26T09:24:27.248Z,5384
2016-12-26T09:25:27.268Z,4388
2016-12-26T09:26:27.229Z,4756
2016-12-26T09:27:27.226Z,5864
2016-12-26T09:28:27.217Z,5716
2016-12-26T09:29:27.212Z,5220
2016-12-26T09:30:27.208Z,4972
2016-12-26T09:31:27.499Z,4848
2016-12-26T09:32:27.204Z,5088
2016-12-26T09:33:27.183Z,6440
2016-12-26T09:34:27.186Z,7676
2016-12-26T09:35:27.180Z,6184
2016-12-26T09:36:27.164Z,5440
2016-12-26T09:37:27.160Z,4904
2016-12-26T09:38:27.153Z,4332
2016-12-26T09:39:27.154Z,4376
2016-12-26T09:40:27.138Z,4892
2016-12-26T09:41:27.134Z,4912
2016-12-26T09:42:27.128Z,5288
2016-12-26T09:43:27.163Z,5816
2016-12-26T09:44:27.115Z,6096
2016-12-26T09:45:27.109Z,6084
2016-12-26T09:46:27.106Z,6136
2016-12-26T09:47:27.406Z,6220
2016-12-26T09:48:27.091Z,5948
2016-12-26T09:49:27.082Z,5776
2016-12-26T09:50:27.078Z,5924
2016-12-26T09:51:27.069Z,5336
2016-12-26T09:52:27.085Z,5528
2016-12-26T09:53:27.065Z,5916
2016-12-26T09:54:27.050Z,7076
2016-12-26T09:55:27.048Z,6896
2016-12-26T09:56:27.345Z,4936
2016-12-26T09:57:27.033Z,4072
2016-12-26T09:58:27.030Z,4152
2016-12-26T09:59:27.025Z,4404
2016-12-26T10:00:27.014Z,3856
2016-12-26T10:01:27.038Z,3804
2016-12-26T10:02:27.008Z,3768
2016-12-26T10:03:27.033Z,3912
2016-12-26T10:04:27.027Z,3844
2016-12-26T10:05:26.985Z,3524
2016-12-26T10:06:27.006Z,3980
2016-12-26T10:07:26.974Z,3800
2016-12-26T10:08:26.971Z,3084
2016-12-26T10:09:26.962Z,3592
2016-12-26T10:10:26.956Z,2860
2016-12-26T10:11:26.953Z,3152
2016-12-26T10:12:26.942Z,3272
2016-12-26T10:13:26.941Z,2704
2016-12-26T10:14:26.934Z,2712
2016-12-26T10:15:26.927Z,3256
2016-12-26T10:16:26.920Z,2928
2016-12-26T10:17:26.915Z,2524
2016-12-26T10:18:26.905Z,2508
2016-12-26T10:19:26.905Z,2968
2016-12-26T10:20:26.899Z,3116
2016-12-26T10:21:26.887Z,2960
2016-12-26T10:22:26.881Z,2688
2016-12-26T10:23:26.892Z,2184
2016-12-26T10:24:26.893Z,2424
2016-12-26T10:25:26.863Z,2404
2016-12-26T10:26:26.860Z,1952
2016-12-26T10:27:26.851Z,1768
2016-12-26T10:28:26.844Z,2344
2016-12-26T10:29:26.847Z,2760
2016-12-26T10:30:26.830Z,2872
2016-12-26T10:31:26.827Z,3032
2016-12-26T10:32:26.817Z,3164
2016-12-26T10:33:26.811Z,3404
2016-12-26T10:34:26.814Z,3908
2016-12-26T10:35:26.801Z,3692
2016-12-26T10:36:26.805Z,3140
2016-12-26T10:37:26.789Z,3040
2016-12-26T10:38:26.781Z,3608
2016-12-26T10:39:26.774Z,3972
2016-12-26T10:40:26.772Z,4016
2016-12-26T10:41:26.760Z,3972
2016-12-26T10:42:26.762Z,4468
2016-12-26T10:43:26.752Z,4552
2016-12-26T10:44:26.774Z,5280
2016-12-26T10:45:26.734Z,4392
2016-12-26T10:46:26.729Z,3648
2016-12-26T10:47:26.724Z,2948
2016-12-26T10:48:26.718Z,3168
2016-12-26T10:49:26.710Z,3048
2016-12-26T10:50:26.705Z,3116
2016-12-26T10:51:26.697Z,2824
2016-12-26T10:52:26.724Z,3168
2016-12-26T10:53:26.685Z,3264
2016-12-26T10:54:26.680Z,3408
2016-12-26T10:55:26.682Z,3560
2016-12-26T10:56:26.668Z,3224
2016-12-26T10:57:26.657Z,2696
2016-12-26T10:58:26.661Z,3160
2016-12-26T10:59:26.653Z,3552
2016-12-26T11:00:26.943Z,4192
2016-12-26T11:01:26.636Z,3936
2016-12-26T11:02:26.631Z,3820
2016-12-26T11:03:26.621Z,3520
2016-12-26T11:04:26.619Z,2828
2016-12-26T11:05:26.609Z,2836
2016-12-26T11:06:26.601Z,3448
2016-12-26T11:07:26.603Z,3468
2016-12-26T11:08:26.589Z,3572
2016-12-26T11:09:26.587Z,3584
2016-12-26T11:10:26.582Z,2964
2016-12-26T11:11:26.577Z,3136
2016-12-26T11:12:26.568Z,3240
2016-12-26T11:13:26.557Z,3192
2016-12-26T11:14:26.559Z,3700
2016-12-26T11:15:26.547Z,3576
2016-12-26T11:16:26.540Z,3408
2016-12-26T11:17:26.533Z,3628
2016-12-26T11:18:26.526Z,3488
2016-12-26T11:19:26.519Z,4688
2016-12-26T11:20:26.844Z,4124
2016-12-26T11:21:26.507Z,3344
2016-12-26T11:22:26.502Z,3388
2016-12-26T11:23:26.499Z,4388
2016-12-26T11:24:26.489Z,4648
2016-12-26T11:25:26.486Z,4488
2016-12-26T11:26:26.477Z,4720
2016-12-26T11:27:26.471Z,4168
2016-12-26T11:28:26.465Z,4000
2016-12-26T11:29:26.456Z,3364
2016-12-26T11:30:26.457Z,3992
2016-12-26T11:31:26.447Z,4344
2016-12-26T11:32:26.437Z,4900
2016-12-26T11:33:26.429Z,5188
2016-12-26T11:34:26.424Z,4532
2016-12-26T11:35:26.424Z,4808
2016-12-26T11:36:26.421Z,4660
2016-12-26T11:37:26.415Z,5180
2016-12-26T11:38:26.409Z,4724
2016-12-26T11:39:26.398Z,5400
2016-12-26T11:40:26.389Z,5200
2016-12-26T11:41:26.382Z,4800
2016-12-26T11:42:26.377Z,3732
2016-12-26T11:43:26.680Z,3728
2016-12-26T11:44:26.364Z,4208
2016-12-26T11:45:26.362Z,5004
2016-12-26T11:46:26.357Z,5844
2016-12-26T11:47:26.345Z,7032
2016-12-26T11:48:26.343Z,6696
2016-12-26T11:49:26.335Z,5596
2016-12-26T11:50:26.329Z,5264
2016-12-26T11:51:26.320Z,5456
2016-12-26T11:52:26.316Z,4088
2016-12-26T11:53:26.309Z,3972
2016-12-26T11:54:26.306Z,3812
2016-12-26T11:55:26.297Z,3256
2016-12-26T11:56:26.300Z,3156
2016-12-26T11:57:26.294Z,3264
2016-12-26T11:58:26.280Z,3060
2016-12-26T11:59:26.274Z,3536
2016-12-26T12:00:26.269Z,3088
2016-12-26T12:01:26.265Z,4072
2016-12-26T12:02:26.257Z,4068
2016-12-26T12:03:26.279Z,3624
2016-12-26T12:04:26.549Z,3568
2016-12-26T12:05:26.241Z,3284
2016-12-26T12:06:26.229Z,3248
2016-12-26T12:07:26.229Z,2844
2016-12-26T12:08:26.219Z,2944
2016-12-26T12:09:26.244Z,3760
2016-12-26T12:10:26.206Z,3484
2016-12-26T12:11:26.206Z,4000
2016-12-26T12:12:26.202Z,2912
2016-12-26T12:13:26.191Z,2464
2016-12-26T12:14:26.181Z,1884
2016-12-26T12:15:26.178Z,1856
2016-12-26T12:16:26.170Z,2372
2016-12-26T12:17:26.165Z,1404
2016-12-26T12:18:26.163Z,1632
2016-12-26T12:19:26.157Z,1924
2016-12-26T12:20:26.150Z,1868
2016-12-26T12:21:26.141Z,2812
2016-12-26T12:22:26.136Z,3640
2016-12-26T12:23:26.128Z,3784
2016-12-26T12:24:26.128Z,3732
2016-12-26T12:25:26.116Z,3312
2016-12-26T12:26:26.111Z,3484
2016-12-26T12:27:26.102Z,3956
2016-12-26T12:28:26.105Z,3996
2016-12-26T12:29:26.422Z,3852
2016-12-26T12:30:26.089Z,3880
2016-12-26T12:31:26.076Z,3940
2016-12-26T12:32:26.075Z,4032
2016-12-26T12:33:26.090Z,3992
2016-12-26T12:34:26.360Z,3732
2016-12-26T12:35:26.049Z,3280
2016-12-26T12:36:26.043Z,3048
2016-12-26T12:37:26.032Z,2964
2016-12-26T12:38:26.331Z,2664
2016-12-26T12:39:26.028Z,2224
2016-12-26T12:40:26.015Z,1804
2016-12-26T12:41:26.007Z,1612
2016-12-26T12:42:25.999Z,1496
2016-12-26T12:43:26.004Z,1596
2016-12-26T12:44:25.989Z,2260
2016-12-26T12:45:25.980Z,2684
2016-12-26T12:46:25.970Z,3288
2016-12-26T12:47:25.965Z,4000
2016-12-26T12:48:25.955Z,4536
2016-12-26T12:49:25.949Z,4380
2016-12-26T12:50:25.939Z,3888
2016-12-26T12:51:25.938Z,3280
2016-12-26T12:52:25.923Z,2768
2016-12-26T12:53:25.913Z,2756
2016-12-26T12:54:25.904Z,2980
2016-12-26T12:55:25.900Z,2736
2016-12-26T12:56:25.896Z,2168
2016-12-26T12:57:26.187Z,2000
2016-12-26T12:58:25.874Z,2192
2016-12-26T12:59:25.871Z,2944
2016-12-26T13:00:25.871Z,3716
2016-12-26T13:01:25.850Z,3648
2016-12-26T13:02:25.841Z,2932
2016-12-26T13:03:25.840Z,2452
2016-12-26T13:04:25.827Z,2328
2016-12-26T13:05:25.847Z,2224
2016-12-26T13:06:25.812Z,2012
2016-12-26T13:07:25.808Z,1872
2016-12-26T13:08:25.792Z,1888
2016-12-26T13:09:25.789Z,2036
2016-12-26T13:10:25.780Z,2208
2016-12-26T13:11:25.792Z,2116
2016-12-26T13:12:25.764Z,1876
2016-12-26T13:13:26.062Z,1676
2016-12-26T13:14:25.747Z,1668
2016-12-26T13:15:25.734Z,1676
2016-12-26T13:16:25.737Z,1664
2016-12-26T13:17:26.067Z,1720
2016-12-26T13:18:25.712Z,1860
2016-12-26T13:19:25.708Z,2120
2016-12-26T13:20:25.697Z,2364
2016-12-26T13:21:25.690Z,2488
2016-12-26T13:22:25.678Z,2396
2016-12-26T13:23:25.673Z,2192
2016-12-26T13:24:25.660Z,2156
2016-12-26T13:25:25.656Z,2188
2016-12-26T13:26:25.644Z,2040
2016-12-26T13:27:25.647Z,1920
2016-12-26T13:28:25.636Z,1992
2016-12-26T13:29:25.618Z,2008
2016-12-26T13:30:25.615Z,1952
2016-12-26T13:31:25.607Z,2008
2016-12-26T13:32:25.598Z,2012
2016-12-26T13:33:25.585Z,1732
2016-12-26T13:34:25.578Z,1544
2016-12-26T13:35:25.568Z,1588
2016-12-26T13:36:25.564Z,2032
2016-12-26T13:37:25.555Z,2232
2016-12-26T13:38:25.542Z,2168
2016-12-26T13:39:25.840Z,2268
2016-12-26T13:40:25.527Z,2216
2016-12-26T13:41:25.514Z,1984
2016-12-26T13:42:25.815Z,1732
2016-12-26T13:43:25.498Z,1496
2016-12-26T13:44:25.794Z,1416
2016-12-26T13:45:25.520Z,1376
2016-12-26T13:46:25.478Z,1308
2016-12-26T13:47:25.468Z,1268
2016-12-26T13:48:25.457Z,1172
2016-12-26T13:49:25.452Z,1108
2016-12-26T13:50:25.453Z,1068
2016-12-26T13:51:25.435Z,1108
2016-12-26T13:52:25.423Z,1028
2016-12-26T13:53:25.417Z,1044
2016-12-26T13:54:25.405Z,892
2016-12-26T13:55:25.401Z,780
2016-12-26T13:56:25.393Z,780
2016-12-26T13:57:25.379Z,772
2016-12-26T13:58:25.376Z,840
2016-12-26T13:59:25.363Z,944
2016-12-26T14:00:25.356Z,1020
2016-12-26T14:01:25.346Z,1032
2016-12-26T14:02:25.338Z,948